Time;durP1;ratioP1;P1;durP2;ratioP2;P2;SDS_P1;SDS_P2;PMS_P1;PMS_P2;Temp;Humidity;BMP_temperature;BMP_pressure;BME280_temperature;BME280_humidity;BME280_pressure;Samples;Min_cycle;Max_cycle;Signal;HPM_P1;HPM_P2
2022/03/07 00:02:04;;;;;;;27.70;20.07;;;;;;;-0.76;62.56;99849.97;5097209;22;20228;-76
2022/03/07 00:05:22;;;;;;;28.33;19.83;;;;;;;-0.80;63.07;99849.41;5090526;22;20254;-75
2022/03/07 00:08:16;;;;;;;27.60;19.53;;;;;;;-1.02;64.11;99850.53;5088342;28;20288;-75
2022/03/07 00:11:10;;;;;;;29.13;20.10;;;;;;;-1.00;63.36;99850.41;5175274;22;20284;-75
2022/03/07 00:13:57;;;;;;;25.13;19.37;;;;;;;-1.20;64.51;99852.22;5046909;28;20244;-75
2022/03/07 00:16:47;;;;;;;24.37;18.07;;;;;;;-1.31;65.12;99854.19;5053705;28;20234;-74
2022/03/07 00:19:29;;;;;;;25.53;18.73;;;;;;;-1.37;64.92;99853.75;5004765;28;20269;-75
2022/03/07 00:22:11;;;;;;;25.83;18.40;;;;;;;-1.45;65.20;99853.63;5054234;28;20229;-75
2022/03/07 00:24:58;;;;;;;25.80;17.90;;;;;;;-1.56;65.42;99852.91;5060730;28;20259;-75
2022/03/07 00:27:30;;;;;;;24.07;18.13;;;;;;;-1.63;65.43;99843.94;5032984;28;20254;-75
2022/03/07 00:30:00;;;;;;;24.17;18.03;;;;;;;-1.55;65.36;99849.31;5050363;28;20226;-75
2022/03/07 00:32:49;;;;;;;24.80;18.70;;;;;;;-1.73;66.23;99854.44;5052410;28;20222;-75
2022/03/07 00:35:17;;;;;;;24.50;17.80;;;;;;;-1.80;66.85;99855.91;5070431;22;20293;-75
2022/03/07 00:37:46;;;;;;;24.00;17.60;;;;;;;-1.92;67.52;99854.38;5075118;28;20271;-76
2022/03/07 00:40:23;;;;;;;26.57;19.27;;;;;;;-2.06;68.79;99866.09;5072158;28;20216;-75
2022/03/07 00:42:54;;;;;;;25.60;18.03;;;;;;;-2.16;69.65;99859.16;5046150;28;20229;-74
2022/03/07 00:45:24;;;;;;;24.80;18.40;;;;;;;-2.29;70.49;99848.88;5071800;28;20225;-75
2022/03/07 00:47:56;;;;;;;22.13;17.57;;;;;;;-2.33;71.25;99856.16;5071099;28;20239;-75
2022/03/07 00:50:27;;;;;;;24.60;17.83;;;;;;;-2.31;70.91;99853.44;5071386;28;20372;-74
2022/03/07 00:52:59;;;;;;;25.43;18.20;;;;;;;-2.28;70.08;99847.91;5079367;22;20225;-75
2022/03/07 00:55:38;;;;;;;24.40;18.43;;;;;;;-2.35;70.59;99852.03;5074805;28;20213;-75
2022/03/07 00:58:40;;;;;;;25.33;18.50;;;;;;;-2.30;69.80;99850.69;5079261;28;20210;-75
2022/03/07 01:01:28;;;;;;;25.60;18.83;;;;;;;-2.30;69.29;99847.22;5089898;23;20228;-75
2022/03/07 01:04:08;;;;;;;26.60;18.47;;;;;;;-2.31;69.68;99850.81;5076653;28;20228;-75
2022/03/07 01:06:38;;;;;;;24.97;18.33;;;;;;;-2.38;69.95;99844.44;5084950;23;20295;-75
2022/03/07 01:09:20;;;;;;;24.17;18.60;;;;;;;-2.41;70.25;99844.69;5072857;28;20227;-75
2022/03/07 01:12:06;;;;;;;27.47;18.87;;;;;;;-2.35;69.47;99838.91;5070215;28;20229;-74
2022/03/07 01:14:59;;;;;;;25.43;18.50;;;;;;;-2.35;69.16;99846.78;5051834;28;20229;-75
2022/03/07 01:17:42;;;;;;;26.97;18.70;;;;;;;-2.45;70.03;99831.00;5073694;28;20243;-75
2022/03/07 01:20:39;;;;;;;26.90;18.83;;;;;;;-2.43;69.64;99828.25;5074062;28;20232;-75
2022/03/07 01:23:28;;;;;;;26.60;18.67;;;;;;;-2.43;69.62;99828.25;5101364;23;20229;-76
2022/03/07 01:26:05;;;;;;;27.37;18.17;;;;;;;-2.39;69.50;99827.84;5072248;28;20247;-75
2022/03/07 01:28:58;;;;;;;22.87;17.50;;;;;;;-2.31;69.19;99828.00;5267685;22;20224;-75
2022/03/07 01:31:42;;;;;;;26.03;17.70;;;;;;;-2.28;67.88;99825.13;5077033;22;20185;-75
2022/03/07 01:34:48;;;;;;;26.30;18.90;;;;;;;-2.23;67.31;99814.22;5020018;28;20233;-76
2022/03/07 01:37:20;;;;;;;24.37;17.73;;;;;;;-2.27;67.86;99820.69;5096590;22;20220;-75
2022/03/07 01:40:17;;;;;;;25.07;18.53;;;;;;;-2.44;68.65;99813.47;5178508;22;20301;-74
2022/03/07 01:42:49;;;;;;;25.37;18.30;;;;;;;-2.33;68.27;99814.19;5107119;23;20232;-75
2022/03/07 01:45:42;;;;;;;25.00;17.63;;;;;;;-2.34;68.39;99815.16;5096095;23;20221;-74
2022/03/07 01:48:18;;;;;;;26.43;18.33;;;;;;;-2.39;68.86;99816.53;5060405;28;20259;-75
2022/03/07 01:51:00;;;;;;;26.33;18.40;;;;;;;-2.43;69.64;99823.00;5077840;23;20221;-74
2022/03/07 01:53:33;;;;;;;27.37;18.30;;;;;;;-2.43;69.70;99820.38;5104136;23;20236;-75
2022/03/07 01:56:30;;;;;;;28.27;19.43;;;;;;;-2.46;69.57;99821.47;5111562;23;20240;-75
2022/03/07 01:59:55;;;;;;;26.70;18.13;;;;;;;-2.32;69.12;99831.59;5174431;22;20224;-75
2022/03/07 02:02:51;;;;;;;26.27;18.40;;;;;;;-2.43;69.96;99829.09;5116920;22;20284;-75
2022/03/07 02:06:04;;;;;;;26.73;18.13;;;;;;;-2.45;70.16;99825.75;5079159;23;20248;-75
2022/03/07 02:08:52;;;;;;;26.67;18.77;;;;;;;-2.45;70.35;99831.00;5100849;22;20243;-76
2022/03/07 02:11:57;;;;;;;28.10;18.27;;;;;;;-2.35;70.10;99828.41;5067805;23;20213;31
2022/03/07 02:14:59;;;;;;;30.07;19.20;;;;;;;-2.25;70.36;99834.53;5089638;22;20253;-74
2022/03/07 02:18:24;;;;;;;27.57;18.90;;;;;;;-2.39;70.44;99827.84;5099946;22;20224;-75
2022/03/07 02:22:15;;;;;;;27.07;19.33;;;;;;;-2.33;69.98;99822.06;5060593;28;20261;-75
2022/03/07 02:25:23;;;;;;;27.90;19.40;;;;;;;-2.53;71.40;99822.97;5099211;22;20209;-74
2022/03/07 02:27:53;;;;;;;26.67;19.10;;;;;;;-2.54;71.45;99817.84;5190895;22;20231;-75
2022/03/07 02:30:51;;;;;;;30.73;20.33;;;;;;;-2.47;70.50;99825.03;5085913;22;20214;-75
2022/03/07 02:33:45;;;;;;;30.73;20.67;;;;;;;-2.51;70.72;99820.19;5094298;23;20212;-75
2022/03/07 02:36:46;;;;;;;27.33;19.70;;;;;;;-2.53;71.10;99820.34;5090275;22;20248;-75
2022/03/07 02:39:21;;;;;;;29.93;20.23;;;;;;;-2.31;70.32;99824.56;5070944;23;20297;-75
2022/03/07 02:42:25;;;;;;;29.13;19.73;;;;;;;-2.24;68.83;99823.88;5089043;23;20212;-75
2022/03/07 02:45:23;;;;;;;27.53;19.43;;;;;;;-2.18;68.61;99819.06;5100377;22;20228;-76
2022/03/07 02:48:27;;;;;;;29.83;19.73;;;;;;;-2.16;67.96;99827.66;5057715;28;20269;-75
2022/03/07 02:51:05;;;;;;;31.87;20.50;;;;;;;-2.27;68.56;99831.19;5080163;23;20210;-77
2022/03/07 02:54:25;;;;;;;28.87;19.47;;;;;;;-2.30;68.70;99836.72;5085217;22;20236;-75
2022/03/07 02:56:58;;;;;;;32.10;20.57;;;;;;;-2.36;69.47;99819.72;5197097;23;20288;-74
2022/03/07 02:59:43;;;;;;;29.73;20.10;;;;;;;-2.30;68.87;99834.94;5061292;22;20228;-75
2022/03/07 03:02:47;;;;;;;28.93;20.43;;;;;;;-2.39;69.44;99833.09;5138665;22;20205;-75
2022/03/07 03:06:04;;;;;;;27.53;19.10;;;;;;;-2.33;68.77;99829.94;5121097;22;20228;31
2022/03/07 03:08:57;;;;;;;30.37;20.70;;;;;;;-2.18;68.05;99833.03;5098772;22;20248;31
2022/03/07 03:12:24;;;;;;;30.93;20.80;;;;;;;-2.20;67.70;99836.75;5069986;22;20221;-74
2022/03/07 03:15:17;;;;;;;29.03;19.50;;;;;;;-2.13;67.46;99837.88;5073182;28;20237;-75
2022/03/07 03:18:07;;;;;;;26.87;19.10;;;;;;;-2.15;67.47;99832.78;5092174;23;20218;-75
2022/03/07 03:20:57;;;;;;;28.00;19.77;;;;;;;-2.14;67.35;99838.81;5085083;23;20213;-74
2022/03/07 03:24:14;;;;;;;29.03;19.77;;;;;;;-1.94;66.17;99830.03;5073948;28;20170;-74
2022/03/07 03:26:45;;;;;;;28.47;19.43;;;;;;;-2.19;67.47;99828.72;5100756;22;20232;-75
2022/03/07 03:29:55;;;;;;;26.30;18.93;;;;;;;-2.15;68.00;99831.94;5102035;22;20217;-75
2022/03/07 03:32:42;;;;;;;28.37;19.53;;;;;;;-2.12;67.23;99831.66;5089810;28;20239;-75
2022/03/07 03:35:18;;;;;;;28.77;19.60;;;;;;;-2.04;66.21;99832.66;5087597;22;20234;-75
2022/03/07 03:38:01;;;;;;;26.87;18.90;;;;;;;-1.99;65.47;99830.44;5048690;28;20248;-75
2022/03/07 03:40:42;;;;;;;28.63;19.93;;;;;;;-2.02;66.07;99835.16;5089371;22;20544;-75
2022/03/07 03:43:12;;;;;;;26.43;18.93;;;;;;;-2.12;66.58;99835.13;5112435;28;20278;-75
2022/03/07 03:45:45;;;;;;;27.27;19.90;;;;;;;-2.17;67.59;99833.84;5100319;28;20200;-75
2022/03/07 03:48:17;;;;;;;29.87;19.63;;;;;;;-2.18;67.75;99837.44;5185490;22;20249;-74
2022/03/07 03:50:45;;;;;;;26.23;18.20;;;;;;;-2.06;66.55;99839.84;5070755;22;20225;-74
2022/03/07 03:53:21;;;;;;;28.23;19.90;;;;;;;-2.03;66.04;99839.56;5094874;22;20263;-74
2022/03/07 03:55:49;;;;;;;26.43;17.80;;;;;;;-1.91;65.27;99838.47;5099496;22;20247;-75
2022/03/07 03:58:19;;;;;;;28.77;19.40;;;;;;;-1.79;64.04;99834.78;5163911;22;20252;-75
2022/03/07 04:01:06;;;;;;;23.87;17.70;;;;;;;-1.69;62.49;99842.69;5089873;23;20239;-74
2022/03/07 04:03:39;;;;;;;28.13;18.67;;;;;;;-1.81;62.75;99843.75;5096816;22;20265;-75
2022/03/07 04:06:28;;;;;;;26.13;18.90;;;;;;;-1.84;62.85;99839.59;5059613;28;20233;-75
2022/03/07 04:09:16;;;;;;;24.97;17.60;;;;;;;-1.72;63.01;99852.59;5076799;23;20222;-75
2022/03/07 04:11:54;;;;;;;28.83;19.50;;;;;;;-1.66;62.36;99846.81;5098368;22;20217;-75
2022/03/07 04:14:33;;;;;;;26.00;18.47;;;;;;;-1.55;62.41;99844.91;5074063;28;20575;-75
2022/03/07 04:17:04;;;;;;;30.23;19.70;;;;;;;-1.52;61.91;99852.50;5081705;22;20220;-75
2022/03/07 04:19:53;;;;;;;27.10;19.20;;;;;;;-1.44;61.77;99843.91;5102436;22;20232;-75
2022/03/07 04:22:26;;;;;;;29.13;20.10;;;;;;;-1.44;61.82;99846.53;5066812;22;20232;-75
2022/03/07 04:25:06;;;;;;;28.37;19.20;;;;;;;-1.36;62.54;99847.53;5095235;28;20231;-75
2022/03/07 04:27:39;;;;;;;30.77;21.47;;;;;;;-1.43;63.31;99854.31;5085597;28;20247;-76
2022/03/07 04:30:28;;;;;;;27.87;19.67;;;;;;;-1.17;61.75;99861.66;5087075;28;20220;-75
2022/03/07 04:33:00;;;;;;;28.37;20.03;;;;;;;-1.39;63.29;99849.59;5091756;28;20209;-75
2022/03/07 04:35:39;;;;;;;30.20;20.87;;;;;;;-1.34;63.73;99853.47;5092038;28;20235;-75
2022/03/07 04:38:08;;;;;;;34.77;21.57;;;;;;;-1.00;61.94;99853.88;5090621;28;20223;-75
2022/03/07 04:40:39;;;;;;;32.60;21.23;;;;;;;-1.09;62.86;99849.47;5063319;22;20222;-75
2022/03/07 04:43:50;;;;;;;29.73;21.67;;;;;;;-1.07;63.56;99857.19;5055831;23;20581;-75
2022/03/07 04:46:21;;;;;;;32.23;21.93;;;;;;;-1.04;63.83;99854.28;5033902;28;20206;-75
2022/03/07 04:49:10;;;;;;;30.80;21.83;;;;;;;-1.07;62.77;99854.56;5026964;28;20244;-75
2022/03/07 04:51:49;;;;;;;34.13;22.87;;;;;;;-1.15;64.07;99847.38;5027839;28;20249;-75
2022/03/07 04:54:24;;;;;;;30.30;21.23;;;;;;;-0.93;64.09;99854.13;5051541;23;20537;-75
2022/03/07 04:56:58;;;;;;;32.07;22.80;;;;;;;-1.00;63.88;99848.63;5076732;28;20250;-75
2022/03/07 04:59:45;;;;;;;34.40;22.27;;;;;;;-0.90;63.71;99844.16;5071283;28;20296;-75
2022/03/07 05:02:20;;;;;;;32.57;22.50;;;;;;;-1.07;64.52;99846.66;5076081;22;20251;-75
2022/03/07 05:05:14;;;;;;;34.37;21.67;;;;;;;-0.94;62.74;99849.84;5057643;28;20214;-75
2022/03/07 05:07:54;;;;;;;34.10;22.30;;;;;;;-1.03;63.24;99853.34;5074246;28;20197;-75
2022/03/07 05:10:48;;;;;;;33.90;22.60;;;;;;;-1.08;63.45;99850.28;5079606;28;20223;-74
2022/03/07 05:13:23;;;;;;;33.03;20.60;;;;;;;-0.93;62.88;99848.88;5049507;28;20237;-75
2022/03/07 05:16:26;;;;;;;34.57;21.83;;;;;;;-1.11;63.88;99856.63;5082063;28;20197;-75
2022/03/07 05:19:24;;;;;;;34.03;22.30;;;;;;;-1.04;63.63;99854.28;5085661;28;20235;-75
2022/03/07 05:21:52;;;;;;;32.67;21.90;;;;;;;-1.07;63.96;99858.03;5085786;28;20249;-76
2022/03/07 05:25:06;;;;;;;33.20;21.80;;;;;;;-1.04;64.70;99864.81;5081678;28;20177;-75
2022/03/07 05:27:35;;;;;;;33.97;22.70;;;;;;;-1.13;64.85;99865.66;5072014;28;20235;-76
2022/03/07 05:30:36;;;;;;;33.33;22.07;;;;;;;-1.07;65.44;99873.78;5090177;28;20223;-74
2022/03/07 05:33:27;;;;;;;32.30;22.60;;;;;;;-1.30;66.16;99872.41;5083824;23;20557;-75
2022/03/07 05:36:49;;;;;;;34.53;22.97;;;;;;;-1.12;65.75;99872.59;5092013;23;20223;-75
2022/03/07 05:39:45;;;;;;;34.63;23.27;;;;;;;-1.17;65.98;99882.69;5088966;22;20229;-75
2022/03/07 05:42:42;;;;;;;32.60;21.87;;;;;;;-0.74;62.76;99880.41;5102656;28;20204;-76
2022/03/07 05:45:20;;;;;;;32.80;22.00;;;;;;;-0.78;61.43;99878.19;5088577;22;20233;-75
2022/03/07 05:48:11;;;;;;;28.90;20.70;;;;;;;-0.74;60.39;99884.81;5067925;22;20234;-74
2022/03/07 05:51:29;;;;;;;27.67;19.90;;;;;;;-0.77;60.67;99885.94;5071762;22;20238;-75
2022/03/07 05:54:12;;;;;;;27.27;20.40;;;;;;;-0.81;60.57;99884.59;5099998;22;20221;-75
2022/03/07 05:57:20;;;;;;;29.07;20.53;;;;;;;-0.72;60.14;99881.09;5088298;22;20215;-75
2022/03/07 06:00:20;;;;;;;26.30;19.03;;;;;;;-0.71;59.30;99884.56;5013486;28;20262;-75
2022/03/07 06:03:00;;;;;;;28.97;19.40;;;;;;;-0.55;58.58;99887.41;5032934;22;20232;-75
2022/03/07 06:05:37;;;;;;;29.00;19.23;;;;;;;-0.39;57.77;99884.19;5085854;22;20240;-75
2022/03/07 06:08:23;;;;;;;28.63;20.47;;;;;;;-0.51;58.28;99883.53;5118876;22;20228;-74
2022/03/07 06:11:49;;;;;;;25.20;18.10;;;;;;;-0.48;55.35;99883.25;5026870;28;20228;-77
2022/03/07 06:14:43;;;;;;;25.00;18.17;;;;;;;-0.37;54.49;99875.16;5047966;22;20236;-73
2022/03/07 06:17:12;;;;;;;23.47;17.83;;;;;;;-0.28;54.28;99876.94;5055961;28;20251;-76
2022/03/07 06:20:15;;;;;;;24.03;17.07;;;;;;;-0.25;53.54;99875.84;5064569;28;20232;-75
2022/03/07 06:22:53;;;;;;;24.47;17.63;;;;;;;-0.25;53.62;99881.09;5070320;28;20233;-74
2022/03/07 06:25:47;;;;;;;24.27;17.97;;;;;;;-0.38;53.92;99870.06;5062599;28;20324;-74
2022/03/07 06:28:31;;;;;;;24.80;18.53;;;;;;;-0.14;53.37;99883.56;5084032;22;20227;-75
2022/03/07 06:31:34;;;;;;;22.57;16.40;;;;;;;-0.07;52.59;99887.25;5090475;28;20218;-75
2022/03/07 06:34:12;;;;;;;26.30;18.17;;;;;;;-0.01;53.07;99887.53;5067549;22;20284;-75
2022/03/07 06:37:04;;;;;;;23.67;17.07;;;;;;;-0.09;53.39;99890.03;5090413;22;20228;-75
2022/03/07 06:40:30;;;;;;;24.50;17.60;;;;;;;0.07;53.50;99897.31;5094466;22;20231;-74
2022/03/07 06:43:05;;;;;;;24.90;18.30;;;;;;;0.25;53.51;99895.56;5084624;28;20256;-75
2022/03/07 06:45:36;;;;;;;23.60;16.77;;;;;;;0.23;53.32;99894.06;5086350;28;20536;-74
2022/03/07 06:48:04;;;;;;;25.27;17.07;;;;;;;0.18;52.68;99888.41;5091107;23;20236;-75
2022/03/07 06:50:44;;;;;;;21.03;15.77;;;;;;;0.24;51.61;99899.16;5060743;28;20280;-75
2022/03/07 06:53:21;;;;;;;22.10;15.60;;;;;;;0.26;51.68;99902.50;5093435;28;20207;-75
2022/03/07 06:55:49;;;;;;;21.37;16.00;;;;;;;0.34;51.72;99899.09;5074427;23;20228;-75
2022/03/07 06:58:33;;;;;;;21.50;16.13;;;;;;;0.34;51.66;99902.56;5088490;28;20603;-75
2022/03/07 07:01:11;;;;;;;21.23;15.83;;;;;;;0.35;51.52;99900.78;5094272;22;20249;-75
2022/03/07 07:03:56;;;;;;;18.07;14.87;;;;;;;0.66;49.14;99906.53;5078264;22;20260;-75
2022/03/07 07:06:38;;;;;;;20.37;15.57;;;;;;;0.55;49.40;99898.84;5070445;28;20200;-75
2022/03/07 07:09:08;;;;;;;20.67;14.90;;;;;;;0.80;47.19;99909.47;5095606;22;20235;-74
2022/03/07 07:11:40;;;;;;;18.53;15.77;;;;;;;0.86;47.28;99910.69;5080688;23;20264;-75
2022/03/07 07:14:12;;;;;;;18.10;14.00;;;;;;;0.81;46.42;99913.78;5085392;23;20250;-75
2022/03/07 07:17:01;;;;;;;17.60;14.10;;;;;;;1.07;45.07;99920.94;5087602;28;20217;-74
2022/03/07 07:19:38;;;;;;;20.70;15.07;;;;;;;1.10;45.49;99918.81;5064340;23;20216;-75
2022/03/07 07:22:08;;;;;;;19.00;14.77;;;;;;;1.28;44.34;99921.44;5078312;22;20266;-75
2022/03/07 07:25:16;;;;;;;20.63;15.23;;;;;;;1.20;44.31;99930.13;5079400;22;20263;-75
2022/03/07 07:27:47;;;;;;;17.63;13.93;;;;;;;1.30;43.43;99940.59;5082023;22;20248;-75
2022/03/07 07:30:22;;;;;;;18.63;14.77;;;;;;;1.39;43.76;99934.41;5061523;28;20229;-75
2022/03/07 07:33:09;;;;;;;20.73;14.90;;;;;;;1.32;44.43;99944.75;5084500;28;20193;-75
2022/03/07 07:35:56;;;;;;;18.83;15.03;;;;;;;1.34;43.77;99957.78;5072451;28;20221;-74
2022/03/07 07:38:34;;;;;;;24.30;18.20;;;;;;;1.41;43.64;99963.28;5082153;23;20251;-75
2022/03/07 07:41:25;;;;;;;27.57;21.30;;;;;;;1.00;44.03;99960.28;5068301;22;20646;-74
2022/03/07 07:43:59;;;;;;;18.53;14.83;;;;;;;0.75;45.07;99956.56;5066251;22;20233;-72
2022/03/07 07:46:28;;;;;;;20.17;16.23;;;;;;;1.01;44.93;99951.41;5071028;28;20232;-72
2022/03/07 07:49:05;;;;;;;19.07;15.67;;;;;;;1.22;44.54;99962.47;5071117;28;20228;-72
2022/03/07 07:51:37;;;;;;;17.13;13.87;;;;;;;1.17;43.60;99955.97;5065090;23;20219;-72
2022/03/07 07:54:34;;;;;;;16.77;13.83;;;;;;;1.16;43.86;99978.94;5040796;28;20257;-72
2022/03/07 07:57:24;;;;;;;18.17;14.17;;;;;;;0.99;45.29;99976.25;5052530;28;20233;-72
2022/03/07 08:00:39;;;;;;;30.97;21.40;;;;;;;1.09;44.22;99971.75;5080623;22;20290;-73
2022/03/07 08:03:11;;;;;;;16.20;14.47;;;;;;;1.42;43.90;99978.97;5107676;22;20255;-75
2022/03/07 08:05:50;;;;;;;18.30;14.17;;;;;;;1.30;42.43;99981.03;5085288;22;20251;-72
2022/03/07 08:08:22;;;;;;;15.97;13.33;;;;;;;1.15;42.67;99985.19;5060644;28;20637;-74
2022/03/07 08:11:10;;;;;;;17.87;13.27;;;;;;;1.15;41.50;99987.81;5083437;28;20209;-72
2022/03/07 08:13:40;;;;;;;15.90;13.63;;;;;;;1.12;41.67;99976.75;5096829;22;20236;-72
2022/03/07 08:16:12;;;;;;;19.20;14.80;;;;;;;0.91;44.19;100002.56;5096115;28;20227;-72
2022/03/07 08:18:43;;;;;;;16.60;13.97;;;;;;;1.21;42.84;99981.91;5107085;22;20703;-75
2022/03/07 08:21:54;;;;;;;16.70;13.60;;;;;;;1.09;43.44;99995.50;5074547;22;20277;-74
2022/03/07 08:25:00;;;;;;;17.23;13.40;;;;;;;0.93;43.37;99977.72;5114139;22;20244;-74
2022/03/07 08:28:28;;;;;;;16.97;13.33;;;;;;;0.98;42.59;99990.47;5099120;22;20232;-73
2022/03/07 08:31:41;;;;;;;15.93;12.97;;;;;;;1.24;42.92;99981.63;5115929;22;20276;-76
2022/03/07 08:34:19;;;;;;;16.67;13.17;;;;;;;1.56;41.18;99989.00;5098940;28;20224;-82
2022/03/07 08:36:52;;;;;;;17.23;14.03;;;;;;;1.30;42.72;99983.69;5077188;22;20224;-78
2022/03/07 08:39:41;;;;;;;16.50;13.43;;;;;;;1.48;42.79;99996.03;5038031;23;20250;-75
2022/03/07 08:42:30;;;;;;;17.03;13.70;;;;;;;1.57;41.93;99997.75;5085978;22;20298;-73
2022/03/07 08:45:54;;;;;;;16.33;12.93;;;;;;;1.81;40.52;100005.88;5103282;22;20259;-78
2022/03/07 08:48:42;;;;;;;16.60;13.40;;;;;;;1.53;40.27;99991.94;4997803;28;20215;-73
2022/03/07 08:51:26;;;;;;;14.77;12.73;;;;;;;1.42;40.48;99997.47;5083680;22;20231;-75
2022/03/07 08:53:57;;;;;;;16.57;12.77;;;;;;;1.59;40.98;99985.19;5078361;23;20229;-72
2022/03/07 08:56:42;;;;;;;17.03;12.30;;;;;;;1.43;42.87;99991.19;5100195;22;20221;-76
2022/03/07 08:59:12;;;;;;;14.53;11.80;;;;;;;1.21;43.15;99989.84;5091409;22;20255;-73
2022/03/07 09:02:49;;;;;;;14.73;11.90;;;;;;;0.86;45.31;99987.19;5076314;22;20658;-72
2022/03/07 09:05:35;;;;;;;15.43;13.10;;;;;;;1.14;45.15;99982.69;5094321;28;20296;-73
2022/03/07 09:08:35;;;;;;;16.07;13.23;;;;;;;1.22;44.89;99986.22;5083437;28;20224;-74
2022/03/07 09:11:23;;;;;;;17.23;14.43;;;;;;;1.33;44.36;100003.66;5101184;22;20227;-74
2022/03/07 09:13:59;;;;;;;15.07;12.80;;;;;;;1.50;44.33;100001.97;5103112;22;20308;-72
2022/03/07 09:16:47;;;;;;;17.80;13.63;;;;;;;1.36;44.17;100005.97;5071322;22;20232;-72
2022/03/07 09:19:24;;;;;;;15.87;11.50;;;;;;;1.55;43.59;100004.97;5035588;28;20237;-72
2022/03/07 09:21:57;;;;;;;14.63;12.30;;;;;;;1.85;42.14;100003.72;5060554;22;20201;-72
2022/03/07 09:24:29;;;;;;;15.37;11.97;;;;;;;1.52;41.71;100008.78;5050121;23;20209;-71
2022/03/07 09:27:15;;;;;;;26.07;19.87;;;;;;;1.24;42.12;99999.28;5090521;22;20274;-72
2022/03/07 09:29:54;;;;;;;17.20;12.43;;;;;;;1.74;41.44;100018.00;5093979;23;20222;-75
2022/03/07 09:32:31;;;;;;;17.20;12.10;;;;;;;2.03;40.32;100007.16;5100654;22;20232;-72
2022/03/07 09:35:42;;;;;;;14.90;12.00;;;;;;;2.51;40.49;100001.31;5084026;22;20217;-74
2022/03/07 09:38:30;;;;;;;15.90;11.67;;;;;;;2.08;39.64;99992.50;5052034;22;20237;-72
2022/03/07 09:41:27;;;;;;;14.83;12.03;;;;;;;2.30;38.14;99996.41;5105950;22;20250;-71
2022/03/07 09:44:39;;;;;;;14.90;11.70;;;;;;;1.64;38.86;99993.50;5205904;22;20205;-71
2022/03/07 09:47:21;;;;;;;13.73;11.90;;;;;;;2.14;38.26;99993.69;5154900;22;20232;-74
2022/03/07 09:50:21;;;;;;;24.30;16.63;;;;;;;2.10;37.92;99995.78;5062253;28;20201;-72
2022/03/07 09:52:58;;;;;;;25.33;18.97;;;;;;;1.91;38.80;99995.19;5077542;28;20201;-72
2022/03/07 09:56:08;;;;;;;13.33;9.90;;;;;;;1.59;37.85;99993.13;5047448;23;20241;-72
2022/03/07 09:59:35;;;;;;;12.90;11.43;;;;;;;1.27;38.87;99970.75;5070813;23;20212;-74
2022/03/07 10:03:00;;;;;;;12.23;10.80;;;;;;;1.81;38.21;99983.91;5054654;28;20229;-74
2022/03/07 10:05:30;;;;;;;14.97;10.43;;;;;;;2.03;38.30;99983.38;5075415;22;20259;-74
2022/03/07 10:08:24;;;;;;;13.40;11.00;;;;;;;2.37;38.36;100001.91;5105373;22;20233;-73
2022/03/07 10:11:41;;;;;;;12.40;10.20;;;;;;;2.18;38.23;99998.50;5079927;23;20239;-72
2022/03/07 10:15:11;;;;;;;14.17;10.47;;;;;;;2.85;37.77;100003.88;5043785;22;20237;-72
2022/03/07 10:18:22;;;;;;;11.70;10.30;;;;;;;3.03;36.82;100000.13;4997005;22;3433879;-74
2022/03/07 10:21:11;;;;;;;11.03;9.70;;;;;;;3.22;36.15;99998.19;5193675;22;20240;-74
2022/03/07 10:24:11;;;;;;;12.03;9.03;;;;;;;3.04;36.29;100004.44;5110792;22;21112;-77
2022/03/07 10:28:00;;;;;;;11.23;8.90;;;;;;;2.85;36.15;99990.66;5075020;22;20259;-74
2022/03/07 10:30:52;;;;;;;10.73;9.03;;;;;;;2.91;37.10;99987.38;5075502;28;20297;-74
2022/03/07 10:34:13;;;;;;;12.07;10.03;;;;;;;2.85;37.71;99986.19;5087108;28;20225;-74
2022/03/07 10:36:58;;;;;;;11.37;9.87;;;;;;;2.99;36.81;99980.28;5101326;22;20212;-74
2022/03/07 10:40:15;;;;;;;12.83;9.63;;;;;;;2.96;38.30;99988.53;5100283;22;20228;-75
2022/03/07 10:43:21;;;;;;;13.60;10.30;;;;;;;2.50;38.63;99981.13;5100779;22;20240;-72
2022/03/07 10:46:45;;;;;;;11.87;9.47;;;;;;;2.83;38.50;99974.97;5065575;22;20247;-74
2022/03/07 10:50:00;;;;;;;11.53;10.00;;;;;;;2.88;39.24;99970.00;5092716;22;20237;-81
2022/03/07 10:53:14;;;;;;;12.53;10.17;;;;;;;3.23;38.45;99970.72;5076857;22;20232;-74
2022/03/07 10:56:14;;;;;;;10.63;9.27;;;;;;;3.03;38.25;99963.06;5177816;22;21006;-73
2022/03/07 10:58:56;;;;;;;9.33;8.30;;;;;;;3.15;38.00;99957.47;5093645;28;20230;-73
2022/03/07 11:01:56;;;;;;;10.37;8.80;;;;;;;3.46;37.40;99958.47;5093451;22;20240;-74
2022/03/07 11:05:03;;;;;;;10.07;8.97;;;;;;;3.60;36.84;99954.31;5081917;22;20240;-74
2022/03/07 11:08:20;;;;;;;9.63;8.50;;;;;;;3.75;36.17;99950.00;5189273;22;20228;-73
2022/03/07 11:10:56;;;;;;;14.07;9.33;;;;;;;3.77;36.73;99940.91;5063762;23;20210;-75
2022/03/07 11:14:08;;;;;;;10.20;8.50;;;;;;;3.79;36.36;99935.41;5095691;28;20179;-74
2022/03/07 11:17:14;;;;;;;11.00;8.73;;;;;;;3.64;37.16;99937.91;5086673;28;20303;-74
2022/03/07 11:20:17;;;;;;;9.23;7.50;;;;;;;3.81;36.43;99928.13;5108767;22;20225;-74
2022/03/07 11:23:24;;;;;;;11.20;8.37;;;;;;;3.79;36.62;99920.34;5066773;22;20236;-75
2022/03/07 11:26:23;;;;;;;9.27;7.50;;;;;;;3.71;36.17;99917.72;5065292;28;20237;-74
2022/03/07 11:29:12;;;;;;;9.20;7.63;;;;;;;3.69;36.37;99913.56;5055143;28;20273;-74
2022/03/07 11:32:34;;;;;;;10.60;7.43;;;;;;;3.72;36.15;99892.88;5063861;28;20190;-76
2022/03/07 11:35:51;;;;;;;8.77;7.17;;;;;;;3.46;36.90;99901.00;5174454;22;20224;-74
2022/03/07 11:38:56;;;;;;;9.63;6.90;;;;;;;3.53;36.50;99890.59;5188088;22;20242;-77
2022/03/07 11:41:42;;;;;;;8.37;6.83;;;;;;;3.63;35.70;99885.94;5042987;28;20229;-74
2022/03/07 11:44:25;;;;;;;9.90;7.33;;;;;;;3.72;36.14;99887.56;5045007;23;20229;-74
2022/03/07 11:47:33;;;;;;;10.17;8.17;;;;;;;3.79;36.70;99869.97;5086502;22;20225;-74
2022/03/07 11:50:45;;;;;;;11.40;8.70;;;;;;;4.36;36.88;99862.63;5121615;23;20227;-73
2022/03/07 11:53:38;;;;;;;11.70;8.57;;;;;;;4.60;35.92;99874.94;5105031;22;20239;-74
2022/03/07 11:56:22;;;;;;;8.77;7.30;;;;;;;4.38;36.16;99847.38;5099665;28;20262;-73
2022/03/07 11:59:32;;;;;;;9.77;7.87;;;;;;;4.15;36.49;99861.59;5089857;22;20224;-74
2022/03/07 12:02:08;;;;;;;9.30;7.00;;;;;;;3.62;37.47;99865.72;5174627;22;20252;-74
2022/03/07 12:05:04;;;;;;;7.90;6.90;;;;;;;3.43;37.87;99884.63;5060303;23;20428;-74
2022/03/07 12:07:49;;;;;;;7.17;6.27;;;;;;;3.48;37.36;99861.13;5048859;22;20256;-74
2022/03/07 12:10:30;;;;;;;7.27;6.13;;;;;;;3.74;37.69;99861.72;5039571;23;20234;-75
2022/03/07 12:13:27;;;;;;;7.60;5.50;;;;;;;3.89;37.98;99860.03;5067057;23;20321;-74
2022/03/07 12:16:45;;;;;;;6.43;5.77;;;;;;;4.11;37.34;99860.25;5140259;22;20248;-74
2022/03/07 12:19:22;;;;;;;6.70;5.07;;;;;;;4.18;37.37;99858.56;5076085;22;20221;-74
2022/03/07 12:22:38;;;;;;;6.80;5.43;;;;;;;3.80;38.20;99844.31;5017872;28;20201;-74
2022/03/07 12:26:09;;;;;;;8.67;5.47;;;;;;;3.95;37.51;99846.09;5083984;22;20252;-74
2022/03/07 12:28:53;;;;;;;8.40;5.27;;;;;;;3.96;37.78;99844.25;5083596;22;20256;-74
2022/03/07 12:31:35;;;;;;;5.43;4.73;;;;;;;3.85;37.88;99840.16;5097638;22;20292;-74
2022/03/07 12:34:26;;;;;;;6.73;5.30;;;;;;;3.99;38.72;99842.09;5090916;28;20589;-74
2022/03/07 12:37:21;;;;;;;6.90;5.60;;;;;;;3.89;38.37;99845.94;5087717;28;20232;-74
2022/03/07 12:40:25;;;;;;;6.23;5.63;;;;;;;3.93;39.01;99842.78;5102300;22;20244;-73
2022/03/07 12:43:38;;;;;;;7.23;6.53;;;;;;;4.17;38.47;99849.78;5086827;28;20251;-74
2022/03/07 12:47:18;;;;;;;7.63;6.30;;;;;;;4.11;38.72;99841.69;5096471;22;20228;-74
2022/03/07 12:50:20;;;;;;;6.67;5.97;;;;;;;4.16;39.57;99840.19;5105988;22;20251;-74
2022/03/07 12:52:52;;;;;;;7.23;6.53;;;;;;;4.24;39.07;99842.81;5084172;22;20220;-74
2022/03/07 12:55:28;;;;;;;7.30;6.13;;;;;;;4.09;39.73;99833.09;5075277;28;20228;-74
2022/03/07 12:58:26;;;;;;;7.13;5.90;;;;;;;3.98;40.10;99829.00;5067108;23;20221;-74
2022/03/07 13:01:13;;;;;;;7.13;6.43;;;;;;;4.01;40.06;99836.63;5054478;28;20240;-74
2022/03/07 13:03:51;;;;;;;7.90;6.17;;;;;;;4.11;40.55;99833.72;5153429;22;20581;-73
2022/03/07 13:06:40;;;;;;;7.53;6.73;;;;;;;3.77;40.63;99829.59;5060105;22;20240;-74
2022/03/07 13:09:52;;;;;;;7.20;5.70;;;;;;;3.91;40.43;99826.22;5206900;22;20232;-74
2022/03/07 13:12:39;;;;;;;8.37;6.13;;;;;;;3.86;40.81;99830.38;5171171;22;20229;-74